Time;durP1;ratioP1;P1;durP2;ratioP2;P2;SDS_P1;SDS_P2;PMS_P1;PMS_P2;Temp;Humidity;BMP_temperature;BMP_pressure;BME280_temperature;BME280_humidity;BME280_pressure;Samples;Min_cycle;Max_cycle;Signal;HPM_P1;HPM_P2
2022/07/07 00:01:26;;;;;;;14.10;5.38;;;16.40;99.90;;;;;;5017294;28;20072;-86
2022/07/07 00:03:53;;;;;;;10.15;5.40;;;16.40;99.90;;;;;;5053274;28;20083;-84
2022/07/07 00:06:19;;;;;;;10.80;6.25;;;16.40;99.90;;;;;;5081058;28;20445;-84
2022/07/07 00:08:47;;;;;;;8.27;5.75;;;16.40;99.90;;;;;;5066425;28;20088;-83
2022/07/07 00:11:15;;;;;;;15.82;5.95;;;16.40;99.90;;;;;;5036016;28;20107;-84
2022/07/07 00:13:41;;;;;;;10.75;6.28;;;16.40;99.90;;;;;;5045961;28;20105;-84
2022/07/07 00:16:07;;;;;;;9.55;6.00;;;16.40;99.90;;;;;;5089058;28;20045;-83
2022/07/07 00:18:34;;;;;;;10.05;6.18;;;16.40;99.90;;;;;;5048484;28;20175;-84
2022/07/07 00:21:00;;;;;;;10.82;5.65;;;16.40;99.90;;;;;;5035923;28;20053;-84
2022/07/07 00:23:26;;;;;;;10.88;5.55;;;16.40;99.90;;;;;;5075953;28;20041;-85
2022/07/07 00:25:52;;;;;;;13.43;4.75;;;16.40;99.90;;;;;;5046094;28;20434;-85
2022/07/07 00:28:18;;;;;;;9.45;4.47;;;16.40;99.90;;;;;;5035820;28;20191;-84
2022/07/07 00:30:44;;;;;;;9.90;4.53;;;16.40;99.90;;;;;;5036635;28;20144;-84
2022/07/07 00:33:09;;;;;;;10.93;3.78;;;16.40;99.90;;;;;;5034848;28;20053;-86
2022/07/07 00:35:35;;;;;;;7.72;3.28;;;16.40;99.90;;;;;;5069732;28;20036;-84
2022/07/07 00:38:01;;;;;;;9.75;2.70;;;16.40;99.90;;;;;;5036589;28;20562;-85
2022/07/07 00:40:27;;;;;;;9.23;2.60;;;16.40;99.90;;;;;;5036346;28;20064;-86
2022/07/07 00:42:52;;;;;;;11.18;3.10;;;16.40;99.90;;;;;;5069405;28;20407;-88
2022/07/07 00:45:18;;;;;;;14.57;3.10;;;16.40;99.90;;;;;;5036763;28;20049;-90
2022/07/07 00:47:45;;;;;;;7.55;2.83;;;16.30;99.90;;;;;;5037852;28;20049;-91
2022/07/07 00:50:11;;;;;;;9.38;2.53;;;16.30;99.90;;;;;;5089558;28;20132;-90
2022/07/07 00:52:37;;;;;;;12.80;3.30;;;16.20;99.90;;;;;;5039028;28;20501;-89
2022/07/07 00:55:03;;;;;;;11.10;2.95;;;16.20;99.90;;;;;;5035555;28;20041;-90
2022/07/07 00:57:30;;;;;;;10.25;2.33;;;16.10;99.90;;;;;;5068440;28;20045;-87
2022/07/07 01:00:01;;;;;;;9.68;2.55;;;16.10;99.90;;;;;;5037181;28;20464;-86
2022/07/07 01:02:29;;;;;;;14.82;3.15;;;16.10;99.90;;;;;;5035587;28;20049;-86
2022/07/07 01:04:57;;;;;;;8.50;2.50;;;16.00;99.90;;;;;;5034618;28;20417;-86
2022/07/07 01:07:23;;;;;;;9.00;2.63;;;16.00;99.90;;;;;;5036087;28;20034;-88
2022/07/07 01:09:49;;;;;;;12.70;3.67;;;16.00;99.90;;;;;;5067141;28;20401;-93
2022/07/07 01:12:16;;;;;;;9.52;2.95;;;16.00;99.90;;;;;;5036263;28;20045;-86
2022/07/07 01:14:41;;;;;;;13.23;3.33;;;16.00;99.90;;;;;;5068507;28;20121;-92
2022/07/07 01:17:07;;;;;;;8.65;2.92;;;16.00;99.90;;;;;;5043554;28;20064;-87
2022/07/07 01:19:33;;;;;;;10.23;3.10;;;16.00;99.90;;;;;;5087709;28;20489;-88
2022/07/07 01:22:03;;;;;;;7.03;3.50;;;16.00;99.90;;;;;;5049795;28;20488;-87
2022/07/07 01:24:30;;;;;;;9.88;2.95;;;15.90;99.90;;;;;;5035378;28;20042;-86
2022/07/07 01:27:13;;;;;;;17.42;3.58;;;15.90;99.90;;;;;;5075584;28;20056;-86
2022/07/07 01:29:46;;;;;;;13.07;3.15;;;15.90;99.90;;;;;;5086905;28;20045;-87
2022/07/07 01:32:12;;;;;;;14.85;3.47;;;15.90;99.90;;;;;;5078199;28;20451;-86
2022/07/07 01:34:41;;;;;;;13.57;3.78;;;15.90;99.90;;;;;;5068186;28;20045;-88
2022/07/07 01:37:07;;;;;;;12.88;3.90;;;15.90;99.90;;;;;;5036289;28;20072;-88
2022/07/07 01:39:34;;;;;;;11.57;3.13;;;15.90;99.90;;;;;;5068982;28;20045;-85
2022/07/07 01:41:59;;;;;;;12.65;3.47;;;15.90;99.90;;;;;;5067904;28;20046;-87
2022/07/07 01:44:25;;;;;;;14.48;3.25;;;15.90;99.90;;;;;;5032895;28;20053;-86
2022/07/07 01:46:51;;;;;;;10.68;2.97;;;15.90;99.90;;;;;;5041703;28;20044;-88
2022/07/07 01:49:17;;;;;;;15.73;4.72;;;15.90;99.90;;;;;;5070230;28;20404;-85
2022/07/07 01:51:43;;;;;;;17.42;3.40;;;15.90;99.90;;;;;;5083184;28;20037;-86
2022/07/07 01:54:10;;;;;;;16.13;3.80;;;15.90;99.90;;;;;;5041019;28;20045;-87
2022/07/07 01:56:36;;;;;;;17.48;3.72;;;15.90;99.90;;;;;;5072089;28;20052;-86
2022/07/07 01:59:03;;;;;;;16.63;3.72;;;15.90;99.90;;;;;;5034393;28;20042;-86
2022/07/07 02:01:28;;;;;;;14.38;4.18;;;15.90;99.90;;;;;;5034800;28;20036;-85
2022/07/07 02:03:54;;;;;;;16.50;4.28;;;15.90;99.90;;;;;;5066268;28;20400;-85
2022/07/07 02:06:20;;;;;;;17.55;3.72;;;15.90;99.90;;;;;;5066669;28;20052;-84
2022/07/07 02:08:46;;;;;;;13.90;3.50;;;15.90;99.90;;;;;;5034586;28;20056;-84
2022/07/07 02:11:14;;;;;;;13.40;3.60;;;15.90;99.90;;;;;;5067606;28;20049;-86
2022/07/07 02:13:42;;;;;;;25.30;4.25;;;15.90;99.90;;;;;;5033800;28;20088;-84
2022/07/07 02:16:08;;;;;;;20.92;4.28;;;15.90;99.90;;;;;;5066245;28;20037;-85
2022/07/07 02:18:35;;;;;;;24.35;4.13;;;15.90;99.90;;;;;;5033672;28;20049;-83
2022/07/07 02:21:03;;;;;;;10.35;2.90;;;15.90;99.90;;;;;;5017279;28;20049;-85
2022/07/07 02:23:29;;;;;;;14.15;3.03;;;15.90;99.90;;;;;;5066374;28;20053;-83
2022/07/07 02:25:55;;;;;;;13.60;2.78;;;15.90;99.90;;;;;;5048975;28;20041;-85
2022/07/07 02:28:22;;;;;;;13.38;2.53;;;15.90;99.90;;;;;;5033041;28;20420;-84
2022/07/07 02:30:48;;;;;;;11.38;2.30;;;15.90;99.90;;;;;;5033549;28;20046;-84
2022/07/07 02:33:14;;;;;;;9.73;2.83;;;15.90;99.90;;;;;;5033515;28;20049;-83
2022/07/07 02:35:39;;;;;;;13.35;2.35;;;15.90;99.90;;;;;;5070785;28;20045;-87
2022/07/07 02:38:05;;;;;;;10.48;2.10;;;15.90;99.90;;;;;;5066108;28;20045;-84
2022/07/07 02:40:31;;;;;;;12.85;2.95;;;15.90;99.90;;;;;;5065394;28;20505;-84
2022/07/07 02:42:57;;;;;;;12.88;2.00;;;15.90;99.90;;;;;;5066103;28;20041;-85
2022/07/07 02:45:22;;;;;;;13.02;2.17;;;15.80;99.90;;;;;;5034089;28;20052;-84
2022/07/07 02:47:48;;;;;;;15.18;2.22;;;15.80;99.90;;;;;;5032967;28;20393;-85
2022/07/07 02:50:14;;;;;;;9.65;1.80;;;15.80;99.90;;;;;;5040807;28;20049;-84
2022/07/07 02:52:40;;;;;;;16.92;2.30;;;15.80;99.90;;;;;;5053744;28;20048;-85
2022/07/07 02:55:06;;;;;;;22.95;2.35;;;15.80;99.90;;;;;;5043011;28;20045;-84
2022/07/07 02:57:32;;;;;;;22.88;3.30;;;15.80;99.90;;;;;;5032574;28;20104;-85
2022/07/07 02:59:57;;;;;;;21.30;2.92;;;15.70;99.90;;;;;;5040589;28;20072;-84
2022/07/07 03:02:24;;;;;;;16.83;2.42;;;15.70;99.90;;;;;;5052911;28;20041;-85
2022/07/07 03:04:50;;;;;;;17.33;3.08;;;15.70;99.90;;;;;;5048345;28;20046;-84
2022/07/07 03:07:16;;;;;;;12.32;2.13;;;15.70;99.90;;;;;;5072813;28;20068;-84
2022/07/07 03:09:41;;;;;;;16.25;2.55;;;15.70;99.90;;;;;;5081481;28;20049;-83
2022/07/07 03:12:07;;;;;;;27.65;3.38;;;15.70;99.90;;;;;;5065633;28;20501;-84
2022/07/07 03:14:33;;;;;;;19.98;3.72;;;15.70;99.90;;;;;;5033630;28;20072;-83
2022/07/07 03:16:59;;;;;;;11.98;2.58;;;15.70;99.90;;;;;;5081755;28;20405;-83
2022/07/07 03:19:24;;;;;;;12.43;2.60;;;15.70;99.90;;;;;;5065737;28;20049;-84
2022/07/07 03:21:50;;;;;;;10.45;2.53;;;15.70;99.90;;;;;;5064788;28;20042;-84
2022/07/07 03:24:16;;;;;;;21.80;2.83;;;15.70;99.90;;;;;;5033832;28;20076;-85
2022/07/07 03:26:41;;;;;;;16.35;3.20;;;15.70;99.90;;;;;;5032467;28;20041;-85
2022/07/07 03:29:07;;;;;;;11.75;2.05;;;15.70;99.90;;;;;;5033310;28;20041;-86
2022/07/07 03:31:33;;;;;;;10.82;1.83;;;15.70;99.90;;;;;;5048783;28;20045;-87
2022/07/07 03:33:58;;;;;;;14.23;2.03;;;15.70;99.90;;;;;;5034305;28;20050;-88
2022/07/07 03:36:24;;;;;;;10.38;1.98;;;15.60;99.90;;;;;;5064852;28;20050;-88
2022/07/07 03:38:50;;;;;;;14.07;2.75;;;15.70;99.90;;;;;;5032669;28;20378;-88
2022/07/07 03:41:16;;;;;;;17.55;2.35;;;15.60;99.90;;;;;;5045321;28;20049;-84
2022/07/07 03:43:41;;;;;;;10.38;1.88;;;15.60;99.90;;;;;;5067940;28;20049;-87
2022/07/07 03:46:07;;;;;;;12.57;2.20;;;15.60;99.90;;;;;;5069628;28;20041;-89
2022/07/07 03:48:33;;;;;;;10.70;1.65;;;15.60;99.90;;;;;;5083646;28;20045;-89
2022/07/07 03:50:59;;;;;;;7.18;1.30;;;15.60;99.90;;;;;;5056073;28;20032;-87
2022/07/07 03:53:25;;;;;;;5.80;1.55;;;15.50;99.90;;;;;;5069630;28;20049;-87
2022/07/07 03:55:51;;;;;;;4.32;1.05;;;15.40;99.90;;;;;;5037706;28;20048;-86
2022/07/07 03:58:16;;;;;;;6.72;1.00;;;15.40;99.90;;;;;;5036486;28;20054;-86
2022/07/07 04:00:42;;;;;;;5.70;1.20;;;15.20;99.90;;;;;;5037580;28;20038;-89
2022/07/07 04:03:09;;;;;;;8.55;1.58;;;15.20;99.90;;;;;;5056260;28;20072;-87
2022/07/07 04:05:35;;;;;;;8.73;1.33;;;15.10;99.90;;;;;;5044563;28;20037;-93
2022/07/07 04:08:01;;;;;;;8.05;1.00;;;15.10;99.90;;;;;;5036878;28;20141;-88
2022/07/07 04:10:27;;;;;;;7.60;1.63;;;15.10;99.90;;;;;;5036372;28;20042;-88
2022/07/07 04:12:54;;;;;;;8.80;1.20;;;15.10;99.90;;;;;;5035834;28;20053;-87
2022/07/07 04:15:20;;;;;;;9.52;1.30;;;15.10;99.90;;;;;;5086470;28;20083;-87
2022/07/07 04:17:46;;;;;;;11.27;1.40;;;15.00;99.90;;;;;;5088926;28;20049;-86
2022/07/07 04:20:12;;;;;;;8.32;1.48;;;15.00;99.90;;;;;;5043634;28;20045;-87
2022/07/07 04:22:38;;;;;;;11.57;1.52;;;15.00;99.90;;;;;;5068937;28;20092;-87
2022/07/07 04:25:04;;;;;;;15.80;2.55;;;15.00;99.90;;;;;;5046287;28;20041;-87
2022/07/07 04:27:30;;;;;;;14.13;1.85;;;15.00;99.90;;;;;;5088885;28;20088;-86
2022/07/07 04:29:55;;;;;;;12.20;2.20;;;15.10;99.90;;;;;;5039545;28;20069;-86
2022/07/07 04:32:21;;;;;;;10.50;1.45;;;15.00;99.90;;;;;;5035732;28;20092;-84
2022/07/07 04:34:47;;;;;;;13.43;2.67;;;15.10;99.90;;;;;;5036711;28;20045;-86
2022/07/07 04:37:12;;;;;;;9.00;1.23;;;15.00;99.90;;;;;;5036380;28;20120;-85
2022/07/07 04:39:38;;;;;;;6.63;1.15;;;15.00;99.90;;;;;;5068127;28;20049;-88
2022/07/07 04:42:04;;;;;;;7.78;1.35;;;15.00;99.90;;;;;;5068567;28;20141;-86
2022/07/07 04:44:30;;;;;;;4.90;0.98;;;15.00;99.90;;;;;;5036490;28;20050;-85
2022/07/07 04:46:56;;;;;;;8.90;1.40;;;15.00;99.90;;;;;;5067344;28;20045;-85
2022/07/07 04:49:22;;;;;;;14.02;1.70;;;15.00;99.90;;;;;;5049705;28;21330;-85
2022/07/07 04:51:48;;;;;;;7.75;1.45;;;15.00;99.90;;;;;;5056220;28;20037;-84
2022/07/07 04:54:14;;;;;;;12.52;1.83;;;15.00;99.90;;;;;;5075259;28;20052;-85
2022/07/07 04:56:40;;;;;;;9.75;1.70;;;15.10;99.90;;;;;;5039370;28;20048;-83
2022/07/07 04:59:06;;;;;;;10.15;1.33;;;15.10;99.90;;;;;;5087805;28;20056;-81
2022/07/07 05:01:32;;;;;;;12.20;1.98;;;15.10;99.90;;;;;;5062824;28;20045;-80
2022/07/07 05:03:57;;;;;;;11.50;2.17;;;15.10;99.90;;;;;;5058514;28;20082;-80
2022/07/07 05:06:23;;;;;;;10.65;1.98;;;15.10;99.90;;;;;;5055173;28;20041;-80
2022/07/07 05:08:49;;;;;;;17.27;3.25;;;15.10;99.90;;;;;;5052167;28;20053;-80
2022/07/07 05:11:15;;;;;;;11.75;1.63;;;15.10;99.90;;;;;;5054462;28;20554;-81
2022/07/07 05:13:40;;;;;;;12.43;2.50;;;15.10;99.90;;;;;;5053707;28;20066;-80
2022/07/07 05:16:07;;;;;;;6.70;1.70;;;15.10;99.90;;;;;;5054604;28;20045;-81
2022/07/07 05:18:32;;;;;;;9.48;1.73;;;15.20;99.90;;;;;;5055514;28;20178;-80
2022/07/07 05:20:58;;;;;;;12.88;2.25;;;15.30;99.90;;;;;;5055625;28;20123;-80
2022/07/07 05:23:27;;;;;;;10.77;2.10;;;15.30;99.90;;;;;;5054660;28;20049;-80
2022/07/07 05:25:54;;;;;;;13.63;2.10;;;15.30;99.90;;;;;;5043960;28;20635;-80
2022/07/07 05:28:20;;;;;;;11.68;2.00;;;15.30;99.90;;;;;;5034671;28;20049;-80
2022/07/07 05:30:46;;;;;;;9.05;2.00;;;15.30;99.90;;;;;;5025605;28;20063;-80
2022/07/07 05:33:12;;;;;;;13.82;2.15;;;15.20;99.90;;;;;;5055276;28;20037;-80
2022/07/07 05:35:37;;;;;;;13.43;1.98;;;15.20;99.90;;;;;;5053268;28;20053;-80
2022/07/07 05:38:04;;;;;;;10.65;2.10;;;15.20;99.90;;;;;;5053930;28;20075;-79
2022/07/07 05:40:30;;;;;;;18.63;2.58;;;15.30;99.90;;;;;;5053156;28;20492;-80
2022/07/07 05:42:56;;;;;;;16.92;2.50;;;15.30;99.90;;;;;;5054383;28;20045;-80
2022/07/07 05:45:22;;;;;;;18.52;2.08;;;15.40;99.90;;;;;;5056071;28;20037;-80
2022/07/07 05:47:48;;;;;;;9.15;2.10;;;15.30;99.90;;;;;;5054756;28;20052;-80
2022/07/07 05:50:13;;;;;;;11.65;2.88;;;15.40;99.90;;;;;;5052030;28;20041;-81
2022/07/07 05:52:39;;;;;;;13.38;2.13;;;15.50;99.90;;;;;;5066810;28;20049;-81
2022/07/07 05:55:09;;;;;;;12.60;1.70;;;15.60;99.90;;;;;;5033394;28;20045;-81
2022/07/07 05:57:34;;;;;;;9.52;2.05;;;15.70;99.90;;;;;;5051612;28;20068;-82
2022/07/07 06:00:00;;;;;;;7.18;1.83;;;15.80;99.90;;;;;;5055031;28;20103;-87
2022/07/07 06:02:26;;;;;;;10.38;1.98;;;15.80;99.90;;;;;;5067322;28;20072;-80
2022/07/07 06:04:52;;;;;;;12.00;2.15;;;15.80;99.90;;;;;;5033869;28;20073;-80
2022/07/07 06:07:17;;;;;;;8.60;1.73;;;15.80;99.90;;;;;;5084406;28;20081;-83
2022/07/07 06:09:43;;;;;;;9.55;2.45;;;15.80;99.90;;;;;;5053988;28;20049;-82
2022/07/07 06:12:09;;;;;;;14.60;2.28;;;15.70;99.90;;;;;;5037950;28;20064;-79
2022/07/07 06:14:35;;;;;;;11.10;2.00;;;15.70;99.90;;;;;;5034672;28;20068;-81
2022/07/07 06:17:01;;;;;;;8.68;2.05;;;15.60;99.90;;;;;;5066680;28;20405;-82
2022/07/07 06:19:27;;;;;;;9.15;1.77;;;15.70;99.90;;;;;;5065706;28;20049;-81
2022/07/07 06:21:53;;;;;;;8.38;1.35;;;15.80;99.90;;;;;;5066358;28;20575;-81
2022/07/07 06:24:19;;;;;;;8.13;1.50;;;15.80;99.90;;;;;;5034117;28;20049;-79
2022/07/07 06:26:44;;;;;;;6.32;1.33;;;15.90;99.90;;;;;;5033780;28;20108;-82
2022/07/07 06:29:10;;;;;;;11.48;1.90;;;15.80;99.90;;;;;;5066408;28;20050;-82
2022/07/07 06:31:37;;;;;;;10.23;2.00;;;15.90;99.90;;;;;;5050947;28;20041;-81
2022/07/07 06:34:02;;;;;;;12.00;2.00;;;15.80;99.90;;;;;;5054130;28;20115;-83
2022/07/07 06:36:28;;;;;;;8.45;1.40;;;15.80;99.90;;;;;;5041156;28;20057;-80
2022/07/07 06:38:55;;;;;;;6.43;1.67;;;15.80;99.90;;;;;;5032831;28;20188;-81
2022/07/07 06:41:32;;;;;;;6.60;1.23;;;15.70;99.90;;;;;;5065935;28;20041;-80
2022/07/07 06:43:58;;;;;;;7.60;1.73;;;15.80;99.90;;;;;;5043516;28;20512;-80
2022/07/07 06:46:23;;;;;;;6.55;1.40;;;15.80;99.90;;;;;;5066708;28;20068;-80
2022/07/07 06:48:49;;;;;;;8.20;1.38;;;15.80;99.90;;;;;;5054072;28;20043;-81
2022/07/07 06:51:15;;;;;;;16.17;2.33;;;15.80;99.90;;;;;;5046534;28;20037;-80
2022/07/07 06:53:41;;;;;;;8.05;1.35;;;15.80;99.90;;;;;;5052990;28;20136;-81
2022/07/07 06:56:07;;;;;;;6.50;1.23;;;16.00;99.90;;;;;;5048240;28;20045;-82
2022/07/07 06:58:33;;;;;;;5.68;1.02;;;16.00;99.90;;;;;;5077221;28;21338;-81
2022/07/07 07:00:58;;;;;;;6.50;1.08;;;16.10;99.90;;;;;;5094645;28;20041;-82
2022/07/07 07:03:24;;;;;;;8.68;1.15;;;16.10;99.90;;;;;;5052259;28;20056;-81
2022/07/07 07:05:50;;;;;;;4.55;0.82;;;16.10;99.90;;;;;;5033433;28;20049;-84
2022/07/07 07:08:16;;;;;;;7.10;1.42;;;16.10;99.90;;;;;;5083175;28;20052;-83
2022/07/07 07:10:41;;;;;;;6.28;0.90;;;16.10;99.90;;;;;;5053074;28;20078;-81
2022/07/07 07:13:07;;;;;;;4.70;0.80;;;16.10;99.90;;;;;;5053572;28;20037;-81
2022/07/07 07:15:33;;;;;;;6.78;1.17;;;16.10;99.90;;;;;;5035016;28;20378;-90
2022/07/07 07:17:58;;;;;;;6.18;1.35;;;16.00;99.90;;;;;;5077253;28;20038;-84
2022/07/07 07:20:24;;;;;;;3.42;1.05;;;16.10;99.90;;;;;;5041878;28;20480;-80
2022/07/07 07:22:50;;;;;;;5.10;1.00;;;16.10;99.90;;;;;;5048853;28;20049;-82
2022/07/07 07:25:17;;;;;;;4.03;0.90;;;16.10;99.90;;;;;;5033345;28;20048;-83
2022/07/07 07:27:43;;;;;;;7.90;0.95;;;16.00;99.90;;;;;;5036253;28;20128;-82
2022/07/07 07:30:09;;;;;;;5.43;1.17;;;16.00;99.90;;;;;;5053895;28;20167;-84
2022/07/07 07:32:35;;;;;;;3.88;0.80;;;15.90;99.90;;;;;;5084717;28;20055;-81
2022/07/07 07:35:01;;;;;;;6.63;1.17;;;16.00;99.90;;;;;;5032351;28;20049;-81
2022/07/07 07:37:26;;;;;;;7.07;1.00;;;16.00;99.90;;;;;;5031764;28;20059;-83
2022/07/07 07:39:57;;;;;;;4.82;0.85;;;16.00;99.90;;;;;;5053629;28;20056;-83
2022/07/07 07:42:26;;;;;;;12.32;2.40;;;16.10;99.90;;;;;;5052288;28;20099;-85
2022/07/07 07:45:11;;;;;;;5.88;1.10;;;16.20;99.90;;;;;;5052453;28;20045;-82
2022/07/07 07:47:44;;;;;;;5.45;1.15;;;16.30;99.90;;;;;;5085379;28;20045;-82
2022/07/07 07:50:13;;;;;;;4.80;0.97;;;16.50;99.90;;;;;;5085181;28;20127;-82
2022/07/07 07:52:40;;;;;;;9.63;1.20;;;16.50;99.90;;;;;;5045435;28;20077;-81
2022/07/07 07:55:07;;;;;;;5.05;1.00;;;16.60;99.90;;;;;;5033213;28;20049;-84
2022/07/07 07:57:33;;;;;;;8.38;1.85;;;16.60;99.90;;;;;;5063833;28;20404;-82
2022/07/07 07:59:59;;;;;;;7.57;1.30;;;16.50;99.90;;;;;;5039362;28;20072;-87
2022/07/07 08:02:25;;;;;;;8.48;1.48;;;16.50;99.90;;;;;;5051737;28;20543;-84
2022/07/07 08:04:51;;;;;;;6.25;1.30;;;16.40;99.90;;;;;;5035296;28;20056;-85
2022/07/07 08:07:17;;;;;;;7.68;1.45;;;16.30;99.90;;;;;;5033097;28;20045;-80
2022/07/07 08:09:44;;;;;;;5.32;1.33;;;16.10;99.90;;;;;;5046615;28;20389;-82
2022/07/07 08:12:10;;;;;;;7.22;1.10;;;16.00;99.90;;;;;;5052149;28;20135;-82
2022/07/07 08:14:35;;;;;;;9.43;1.20;;;16.00;99.90;;;;;;5040156;28;20455;-80
2022/07/07 08:17:01;;;;;;;4.88;1.20;;;15.90;99.90;;;;;;5039388;28;20041;-88
2022/07/07 08:19:27;;;;;;;8.50;1.30;;;15.90;99.90;;;;;;5095304;28;20048;-88
2022/07/07 08:21:53;;;;;;;6.47;1.88;;;16.00;99.90;;;;;;5071715;28;20396;-81
2022/07/07 08:24:19;;;;;;;6.60;2.00;;;16.00;99.90;;;;;;5061907;28;20468;-82
2022/07/07 08:26:45;;;;;;;9.63;2.00;;;16.00;99.90;;;;;;5052512;28;20110;-81
2022/07/07 08:29:10;;;;;;;9.57;1.80;;;16.10;99.90;;;;;;5052104;28;20053;-82
2022/07/07 08:31:36;;;;;;;8.07;1.70;;;16.20;99.90;;;;;;5042476;28;20050;-80
2022/07/07 08:34:02;;;;;;;9.82;1.92;;;16.30;99.90;;;;;;5038268;28;20046;-81
2022/07/07 08:36:30;;;;;;;8.25;1.95;;;16.30;99.90;;;;;;5036213;28;20485;-83
2022/07/07 08:38:57;;;;;;;4.18;1.13;;;16.40;99.90;;;;;;5069743;28;20045;-86
2022/07/07 08:41:24;;;;;;;7.13;1.75;;;16.40;99.90;;;;;;5043600;28;20161;-86
2022/07/07 08:43:50;;;;;;;9.73;2.15;;;16.30;99.90;;;;;;5088256;28;20370;-88
2022/07/07 08:46:16;;;;;;;14.95;2.60;;;16.20;99.90;;;;;;5084190;28;20044;-81
2022/07/07 08:48:43;;;;;;;5.95;1.90;;;16.20;99.90;;;;;;5051875;28;20144;-82
2022/07/07 08:51:09;;;;;;;5.85;1.67;;;16.20;99.90;;;;;;5036194;28;20389;-80
2022/07/07 08:53:38;;;;;;;5.47;1.50;;;16.20;99.90;;;;;;5048812;28;20552;-88
2022/07/07 08:56:06;;;;;;;10.50;2.20;;;16.30;99.90;;;;;;5055884;28;20545;-80
2022/07/07 08:58:35;;;;;;;10.85;2.13;;;16.40;99.90;;;;;;5056747;28;20099;-84
2022/07/07 09:01:08;;;;;;;10.73;1.85;;;16.50;99.90;;;;;;5087514;28;20072;-87
2022/07/07 09:03:34;;;;;;;14.60;2.95;;;16.70;99.90;;;;;;5038242;28;20041;-82
2022/07/07 09:06:01;;;;;;;6.32;1.70;;;16.80;99.90;;;;;;5039623;28;20119;-85
2022/07/07 09:08:29;;;;;;;9.82;2.10;;;16.90;99.90;;;;;;5087295;28;20451;-87
2022/07/07 09:10:56;;;;;;;7.07;2.20;;;17.00;99.90;;;;;;5039856;28;20077;-85
2022/07/07 09:13:23;;;;;;;9.02;1.67;;;17.10;99.90;;;;;;5037338;28;20046;-81
2022/07/07 09:15:49;;;;;;;11.93;2.20;;;17.20;99.90;;;;;;5035547;28;20072;-82
2022/07/07 09:18:33;;;;;;;7.40;1.40;;;17.20;99.90;;;;;;5044892;28;20056;-83
2022/07/07 09:21:00;;;;;;;9.82;1.80;;;17.20;99.90;;;;;;5084859;28;20028;-84
2022/07/07 09:23:26;;;;;;;6.97;1.77;;;17.10;99.90;;;;;;5054008;28;20037;-83
2022/07/07 09:25:52;;;;;;;4.43;1.17;;;17.10;99.90;;;;;;5047582;28;20131;-91
2022/07/07 09:28:18;;;;;;;7.10;1.70;;;17.10;99.90;;;;;;5033564;28;20049;-83
2022/07/07 09:30:46;;;;;;;5.30;1.45;;;17.10;99.90;;;;;;5042615;28;20584;-85
2022/07/07 09:33:20;;;;;;;3.88;0.90;;;17.10;99.90;;;;;;5055614;28;20072;-84
2022/07/07 09:38:34;;;;;;;5.45;1.05;;;16.60;99.90;;;;;;5043261;28;20056;-88
2022/07/07 09:41:04;;;;;;;3.83;1.70;;;16.40;99.90;;;;;;5047768;28;20045;-84
2022/07/07 09:43:32;;;;;;;7.07;1.20;;;16.30;99.90;;;;;;5042251;28;20096;-88
2022/07/07 09:46:18;;;;;;;7.72;1.60;;;16.30;99.90;;;;;;5088547;28;20047;-90
2022/07/07 09:48:55;;;;;;;6.18;1.73;;;16.40;99.90;;;;;;5054219;28;20045;-84
2022/07/07 09:51:26;;;;;;;11.18;1.75;;;16.40;99.90;;;;;;5045850;28;20038;-84
2022/07/07 09:53:56;;;;;;;7.28;1.27;;;16.50;99.90;;;;;;5034988;28;20056;-85
2022/07/07 09:56:24;;;;;;;6.30;1.20;;;16.60;99.90;;;;;;5042487;28;20049;-81
2022/07/07 09:58:52;;;;;;;2.55;0.93;;;16.60;99.90;;;;;;5050376;28;20053;-88
2022/07/07 10:01:18;;;;;;;7.00;1.00;;;16.60;99.90;;;;;;5066873;28;20055;-88
2022/07/07 10:03:44;;;;;;;3.85;0.90;;;16.50;99.90;;;;;;5072793;28;20045;-88
2022/07/07 10:06:13;;;;;;;10.23;1.60;;;16.50;99.90;;;;;;5054607;28;20396;-85
2022/07/07 10:08:45;;;;;;;4.57;1.10;;;16.60;99.90;;;;;;5055413;28;20083;-86
2022/07/07 10:11:16;;;;;;;7.43;1.73;;;16.60;99.90;;;;;;5086143;28;20555;-88
2022/07/07 10:13:44;;;;;;;6.53;1.15;;;16.60;99.90;;;;;;5079481;28;20049;-88
2022/07/07 10:16:10;;;;;;;8.75;1.58;;;16.60;99.90;;;;;;5066584;28;20053;-89
2022/07/07 10:18:36;;;;;;;5.20;1.15;;;16.50;99.90;;;;;;5048125;28;20071;-89
2022/07/07 10:21:03;;;;;;;7.25;1.20;;;16.40;99.90;;;;;;5066621;28;20048;-82
2022/07/07 10:23:32;;;;;;;4.90;1.02;;;16.30;99.90;;;;;;5040656;28;20063;-85
2022/07/07 10:26:02;;;;;;;13.32;1.35;;;16.30;99.90;;;;;;5053220;28;20044;-84
2022/07/07 10:28:50;;;;;;;9.25;1.80;;;16.10;99.90;;;;;;5074849;28;20128;-84
2022/07/07 10:31:24;;;;;;;7.00;2.33;;;16.00;99.90;;;;;;5051619;28;20048;-82
2022/07/07 10:34:04;;;;;;;8.40;1.53;;;16.00;99.90;;;;;;5054579;28;20568;-86
2022/07/07 10:36:48;;;;;;;7.60;1.40;;;16.00;99.90;;;;;;5053028;28;20311;-88
2022/07/07 10:39:15;;;;;;;14.60;2.45;;;16.00;99.90;;;;;;5048717;28;20139;-83
2022/07/07 10:41:49;;;;;;;13.35;2.20;;;16.00;99.90;;;;;;5053484;28;20064;-85
2022/07/07 10:44:21;;;;;;;12.80;3.35;;;16.00;99.90;;;;;;5048805;28;20049;-83
2022/07/07 10:46:58;;;;;;;10.57;2.53;;;16.00;99.90;;;;;;5079564;28;20453;-84
2022/07/07 10:49:38;;;;;;;17.73;3.03;;;16.10;99.90;;;;;;5043485;28;20057;-85
2022/07/07 10:52:14;;;;;;;15.32;3.22;;;16.10;99.90;;;;;;5036845;28;20049;-85
2022/07/07 10:54:48;;;;;;;11.77;3.00;;;16.20;99.90;;;;;;5066522;28;20052;-88
2022/07/07 10:57:16;;;;;;;10.80;1.90;;;16.20;99.90;;;;;;5051806;28;20061;-83
2022/07/07 10:59:59;;;;;;;10.38;2.05;;;16.30;99.90;;;;;;5074758;28;20091;-90
2022/07/07 11:02:47;;;;;;;12.27;2.50;;;16.30;99.90;;;;;;5047153;28;20194;-84
2022/07/07 11:05:12;;;;;;;17.38;2.33;;;16.20;99.90;;;;;;5055079;28;20078;-90
2022/07/07 11:07:43;;;;;;;16.23;2.75;;;16.10;99.90;;;;;;5084882;28;20049;-84
2022/07/07 11:10:11;;;;;;;10.68;2.22;;;16.10;99.90;;;;;;5048394;28;20042;-87
2022/07/07 11:12:41;;;;;;;17.08;3.13;;;16.10;99.90;;;;;;5065993;28;20123;-83
2022/07/07 11:15:26;;;;;;;11.50;2.70;;;16.20;99.90;;;;;;5044085;28;20053;-83
2022/07/07 11:17:52;;;;;;;10.77;2.20;;;16.20;99.90;;;;;;5051536;28;20124;-86
2022/07/07 11:20:23;;;;;;;14.43;2.92;;;16.20;99.90;;;;;;5031371;28;20132;-83
2022/07/07 11:23:07;;;;;;;17.38;2.45;;;16.20;99.90;;;;;;5033409;28;20049;-90
2022/07/07 11:25:34;;;;;;;15.75;3.10;;;16.20;99.90;;;;;;5051888;28;20044;-87
2022/07/07 11:28:00;;;;;;;13.70;2.38;;;16.20;99.90;;;;;;5052313;28;20060;-82
2022/07/07 11:30:28;;;;;;;11.65;2.92;;;16.20;99.90;;;;;;5066048;28;20041;-87
2022/07/07 11:32:58;;;;;;;17.55;3.38;;;16.20;99.90;;;;;;5033452;28;20428;-87
2022/07/07 11:35:39;;;;;;;16.20;2.72;;;16.30;99.90;;;;;;5052658;28;20048;-82
2022/07/07 11:38:09;;;;;;;17.08;2.90;;;16.30;99.90;;;;;;5084536;28;20048;-82
2022/07/07 11:40:38;;;;;;;19.08;2.83;;;16.40;99.90;;;;;;5031966;28;20050;-82
2022/07/07 11:43:05;;;;;;;13.18;2.22;;;16.40;99.90;;;;;;5032265;28;20075;-90
2022/07/07 11:45:32;;;;;;;16.08;3.47;;;16.50;99.90;;;;;;5065933;28;20127;-84
2022/07/07 11:48:03;;;;;;;14.48;2.85;;;16.50;99.90;;;;;;5065380;28;20639;-81
2022/07/07 11:50:31;;;;;;;8.45;2.72;;;16.50;99.90;;;;;;5050451;28;20392;-84
2022/07/07 11:53:01;;;;;;;15.85;2.83;;;16.40;99.90;;;;;;5084373;28;20053;-82
2022/07/07 11:55:27;;;;;;;12.38;3.15;;;16.50;99.90;;;;;;5082939;28;20127;-83
2022/07/07 11:57:55;;;;;;;20.17;2.88;;;16.50;99.90;;;;;;5055364;28;20048;-84
2022/07/07 12:00:24;;;;;;;13.93;2.08;;;16.50;99.90;;;;;;5057953;28;20041;-87
2022/07/07 12:02:52;;;;;;;19.08;2.95;;;16.40;99.90;;;;;;5088952;28;20049;-83
2022/07/07 12:05:21;;;;;;;14.75;2.50;;;16.30;99.90;;;;;;5047461;28;20049;-89
2022/07/07 12:07:58;;;;;;;12.95;2.78;;;16.30;99.90;;;;;;5077132;28;20077;-84
2022/07/07 12:10:29;;;;;;;17.13;3.05;;;16.20;99.90;;;;;;5046859;28;20082;-91
2022/07/07 12:13:01;;;;;;;18.45;4.22;;;16.20;99.90;;;;;;5054499;28;20413;-91
2022/07/07 12:15:31;;;;;;;14.75;2.42;;;16.20;99.90;;;;;;5051920;28;20033;-90
2022/07/07 12:17:57;;;;;;;11.80;2.05;;;16.20;99.90;;;;;;5050854;28;20060;-91
2022/07/07 12:20:24;;;;;;;17.10;3.10;;;16.20;99.90;;;;;;5038651;28;20049;-84
2022/07/07 12:22:58;;;;;;;8.32;2.25;;;16.10;99.90;;;;;;5082303;28;20044;-90
2022/07/07 12:25:25;;;;;;;;;;;16.00;99.90;;;;;;5056104;28;20493;-87
2022/07/07 12:28:10;;;;;;;14.82;3.00;;;15.90;99.90;;;;;;5052236;28;19943;-85
2022/07/07 12:30:55;;;;;;;17.02;2.85;;;15.80;99.90;;;;;;5043873;28;20124;-84
2022/07/07 12:33:40;;;;;;;16.13;3.00;;;15.90;99.90;;;;;;5053685;28;20041;-86
2022/07/07 12:36:07;;;;;;;13.75;2.97;;;16.00;99.90;;;;;;5058017;28;20107;-86
2022/07/07 12:38:42;;;;;;;14.23;2.90;;;16.10;99.90;;;;;;5067969;28;20049;-85
2022/07/07 12:41:08;;;;;;;11.18;2.50;;;16.20;99.90;;;;;;5035656;28;20037;-89
2022/07/07 12:43:36;;;;;;;9.50;2.55;;;16.30;99.90;;;;;;5036225;28;20052;-88
2022/07/07 12:46:10;;;;;;;21.75;4.63;;;16.40;99.90;;;;;;5042243;28;20075;-88